sensor_id;sensor_type;location;lat;lon;timestamp;P1;durP1;ratioP1;P2;durP2;ratioP2
15240;SDS011;7723;52.170;9.978;2023-04-15T00:00:10;6.43;;;4.65;;
15240;SDS011;7723;52.170;9.978;2023-04-15T00:02:37;8.35;;;5.38;;
15240;SDS011;7723;52.170;9.978;2023-04-15T00:05:04;8.18;;;5.00;;
15240;SDS011;7723;52.170;9.978;2023-04-15T00:07:32;6.88;;;4.97;;
15240;SDS011;7723;52.170;9.978;2023-04-15T00:09:59;7.07;;;4.57;;
15240;SDS011;7723;52.170;9.978;2023-04-15T00:12:28;8.45;;;5.43;;
15240;SDS011;7723;52.170;9.978;2023-04-15T00:14:55;6.90;;;4.82;;
15240;SDS011;7723;52.170;9.978;2023-04-15T00:17:24;9.88;;;5.53;;
15240;SDS011;7723;52.170;9.978;2023-04-15T00:19:52;7.13;;;5.03;;
15240;SDS011;7723;52.170;9.978;2023-04-15T00:22:19;6.50;;;5.18;;
15240;SDS011;7723;52.170;9.978;2023-04-15T00:24:46;7.07;;;4.85;;
15240;SDS011;7723;52.170;9.978;2023-04-15T00:27:13;7.85;;;5.10;;
15240;SDS011;7723;52.170;9.978;2023-04-15T00:29:40;7.20;;;5.28;;
15240;SDS011;7723;52.170;9.978;2023-04-15T00:32:07;7.10;;;5.10;;
15240;SDS011;7723;52.170;9.978;2023-04-15T00:34:36;7.20;;;5.30;;
15240;SDS011;7723;52.170;9.978;2023-04-15T00:37:03;7.90;;;5.10;;
15240;SDS011;7723;52.170;9.978;2023-04-15T00:39:30;8.82;;;5.57;;
15240;SDS011;7723;52.170;9.978;2023-04-15T00:41:57;8.07;;;5.90;;
15240;SDS011;7723;52.170;9.978;2023-04-15T00:44:24;7.80;;;5.38;;
15240;SDS011;7723;52.170;9.978;2023-04-15T00:46:52;9.25;;;5.35;;
15240;SDS011;7723;52.170;9.978;2023-04-15T00:49:19;6.47;;;4.53;;
15240;SDS011;7723;52.170;9.978;2023-04-15T00:51:48;7.82;;;4.78;;
15240;SDS011;7723;52.170;9.978;2023-04-15T00:54:15;6.90;;;4.70;;
15240;SDS011;7723;52.170;9.978;2023-04-15T00:56:42;6.25;;;4.38;;
15240;SDS011;7723;52.170;9.978;2023-04-15T00:59:09;8.38;;;5.10;;
15240;SDS011;7723;52.170;9.978;2023-04-15T01:01:37;6.15;;;4.50;;
15240;SDS011;7723;52.170;9.978;2023-04-15T01:04:04;9.95;;;5.05;;
15240;SDS011;7723;52.170;9.978;2023-04-15T01:06:34;8.63;;;4.72;;
15240;SDS011;7723;52.170;9.978;2023-04-15T01:09:02;8.23;;;4.72;;
15240;SDS011;7723;52.170;9.978;2023-04-15T01:11:30;10.13;;;5.18;;
15240;SDS011;7723;52.170;9.978;2023-04-15T01:13:59;6.50;;;5.00;;
15240;SDS011;7723;52.170;9.978;2023-04-15T01:16:26;7.13;;;5.15;;
15240;SDS011;7723;52.170;9.978;2023-04-15T01:18:54;8.20;;;4.97;;
15240;SDS011;7723;52.170;9.978;2023-04-15T01:21:21;10.60;;;4.93;;
15240;SDS011;7723;52.170;9.978;2023-04-15T01:23:49;6.90;;;4.63;;
15240;SDS011;7723;52.170;9.978;2023-04-15T01:26:19;8.30;;;5.25;;
15240;SDS011;7723;52.170;9.978;2023-04-15T01:28:47;10.43;;;5.00;;
15240;SDS011;7723;52.170;9.978;2023-04-15T01:31:14;7.60;;;4.72;;
15240;SDS011;7723;52.170;9.978;2023-04-15T01:33:42;7.38;;;4.50;;
15240;SDS011;7723;52.170;9.978;2023-04-15T01:36:09;6.65;;;4.60;;
15240;SDS011;7723;52.170;9.978;2023-04-15T01:38:36;7.70;;;4.85;;
15240;SDS011;7723;52.170;9.978;2023-04-15T01:41:04;8.75;;;5.13;;
15240;SDS011;7723;52.170;9.978;2023-04-15T01:43:33;6.70;;;4.65;;
15240;SDS011;7723;52.170;9.978;2023-04-15T01:46:01;6.90;;;4.88;;
15240;SDS011;7723;52.170;9.978;2023-04-15T01:48:29;6.38;;;4.53;;
15240;SDS011;7723;52.170;9.978;2023-04-15T01:50:56;5.30;;;4.07;;
15240;SDS011;7723;52.170;9.978;2023-04-15T01:53:24;6.93;;;4.47;;
15240;SDS011;7723;52.170;9.978;2023-04-15T01:55:51;7.60;;;4.35;;
15240;SDS011;7723;52.170;9.978;2023-04-15T01:58:18;6.07;;;4.45;;
15240;SDS011;7723;52.170;9.978;2023-04-15T02:00:47;6.35;;;4.80;;
15240;SDS011;7723;52.170;9.978;2023-04-15T02:03:14;7.70;;;4.80;;
15240;SDS011;7723;52.170;9.978;2023-04-15T02:05:42;8.20;;;5.78;;
15240;SDS011;7723;52.170;9.978;2023-04-15T02:08:09;7.85;;;5.10;;
15240;SDS011;7723;52.170;9.978;2023-04-15T02:10:36;7.57;;;5.07;;
15240;SDS011;7723;52.170;9.978;2023-04-15T02:13:04;7.85;;;5.10;;
15240;SDS011;7723;52.170;9.978;2023-04-15T02:15:31;7.60;;;5.32;;
15240;SDS011;7723;52.170;9.978;2023-04-15T02:18:00;8.77;;;5.55;;
15240;SDS011;7723;52.170;9.978;2023-04-15T02:20:27;7.53;;;5.30;;
15240;SDS011;7723;52.170;9.978;2023-04-15T02:22:55;9.60;;;6.22;;
15240;SDS011;7723;52.170;9.978;2023-04-15T02:25:22;9.30;;;5.43;;
15240;SDS011;7723;52.170;9.978;2023-04-15T02:27:49;7.53;;;5.25;;
15240;SDS011;7723;52.170;9.978;2023-04-15T02:30:16;8.93;;;5.70;;
15240;SDS011;7723;52.170;9.978;2023-04-15T02:32:44;7.95;;;5.32;;
15240;SDS011;7723;52.170;9.978;2023-04-15T02:35:12;8.73;;;5.80;;
15240;SDS011;7723;52.170;9.978;2023-04-15T02:37:39;9.02;;;5.53;;
15240;SDS011;7723;52.170;9.978;2023-04-15T02:40:10;10.63;;;6.57;;
15240;SDS011;7723;52.170;9.978;2023-04-15T02:42:38;10.88;;;6.18;;
15240;SDS011;7723;52.170;9.978;2023-04-15T02:45:05;9.82;;;5.70;;
15240;SDS011;7723;52.170;9.978;2023-04-15T02:47:33;11.77;;;6.32;;
15240;SDS011;7723;52.170;9.978;2023-04-15T02:50:01;10.25;;;5.90;;
15240;SDS011;7723;52.170;9.978;2023-04-15T02:52:30;8.88;;;5.93;;
15240;SDS011;7723;52.170;9.978;2023-04-15T02:54:57;10.27;;;6.60;;
15240;SDS011;7723;52.170;9.978;2023-04-15T02:57:26;12.20;;;6.95;;
15240;SDS011;7723;52.170;9.978;2023-04-15T02:59:54;11.25;;;6.72;;
15240;SDS011;7723;52.170;9.978;2023-04-15T03:02:21;10.73;;;7.15;;
15240;SDS011;7723;52.170;9.978;2023-04-15T03:04:49;9.75;;;6.57;;
15240;SDS011;7723;52.170;9.978;2023-04-15T03:07:17;12.05;;;7.13;;
15240;SDS011;7723;52.170;9.978;2023-04-15T03:09:46;12.80;;;7.03;;
15240;SDS011;7723;52.170;9.978;2023-04-15T03:12:13;12.68;;;7.28;;
15240;SDS011;7723;52.170;9.978;2023-04-15T03:14:40;12.35;;;7.38;;
15240;SDS011;7723;52.170;9.978;2023-04-15T03:17:07;13.18;;;7.45;;
15240;SDS011;7723;52.170;9.978;2023-04-15T03:19:34;13.63;;;7.97;;
15240;SDS011;7723;52.170;9.978;2023-04-15T03:22:01;13.90;;;7.32;;
15240;SDS011;7723;52.170;9.978;2023-04-15T03:24:28;12.55;;;7.57;;
15240;SDS011;7723;52.170;9.978;2023-04-15T03:26:57;15.38;;;8.85;;
15240;SDS011;7723;52.170;9.978;2023-04-15T03:29:24;13.18;;;7.80;;
15240;SDS011;7723;52.170;9.978;2023-04-15T03:31:51;12.23;;;7.40;;
15240;SDS011;7723;52.170;9.978;2023-04-15T03:34:18;13.45;;;8.10;;
15240;SDS011;7723;52.170;9.978;2023-04-15T03:36:46;15.25;;;8.65;;
15240;SDS011;7723;52.170;9.978;2023-04-15T03:39:13;15.02;;;8.40;;
15240;SDS011;7723;52.170;9.978;2023-04-15T03:41:40;16.13;;;8.90;;
15240;SDS011;7723;52.170;9.978;2023-04-15T03:44:09;15.15;;;8.63;;
15240;SDS011;7723;52.170;9.978;2023-04-15T03:46:36;14.88;;;8.48;;
15240;SDS011;7723;52.170;9.978;2023-04-15T03:49:03;15.70;;;9.05;;
15240;SDS011;7723;52.170;9.978;2023-04-15T03:51:31;13.85;;;8.07;;
15240;SDS011;7723;52.170;9.978;2023-04-15T03:53:58;14.05;;;7.80;;
15240;SDS011;7723;52.170;9.978;2023-04-15T03:56:26;13.38;;;7.82;;
15240;SDS011;7723;52.170;9.978;2023-04-15T03:58:53;17.63;;;9.13;;
15240;SDS011;7723;52.170;9.978;2023-04-15T04:01:21;17.38;;;9.20;;
15240;SDS011;7723;52.170;9.978;2023-04-15T04:03:48;16.15;;;8.95;;
15240;SDS011;7723;52.170;9.978;2023-04-15T04:06:16;16.42;;;7.93;;
15240;SDS011;7723;52.170;9.978;2023-04-15T04:08:43;15.85;;;8.85;;
15240;SDS011;7723;52.170;9.978;2023-04-15T04:11:10;16.30;;;9.23;;
15240;SDS011;7723;52.170;9.978;2023-04-15T04:13:37;17.52;;;9.00;;
15240;SDS011;7723;52.170;9.978;2023-04-15T04:16:04;17.88;;;8.98;;
15240;SDS011;7723;52.170;9.978;2023-04-15T04:18:33;16.77;;;9.10;;
15240;SDS011;7723;52.170;9.978;2023-04-15T04:21:00;20.77;;;11.40;;
15240;SDS011;7723;52.170;9.978;2023-04-15T04:23:27;17.98;;;10.65;;
15240;SDS011;7723;52.170;9.978;2023-04-15T04:25:55;18.00;;;10.40;;
15240;SDS011;7723;52.170;9.978;2023-04-15T04:28:22;19.05;;;9.95;;
15240;SDS011;7723;52.170;9.978;2023-04-15T04:30:49;18.50;;;9.70;;
15240;SDS011;7723;52.170;9.978;2023-04-15T04:33:16;17.55;;;10.52;;
15240;SDS011;7723;52.170;9.978;2023-04-15T04:35:45;18.13;;;10.65;;
15240;SDS011;7723;52.170;9.978;2023-04-15T04:38:12;22.25;;;10.50;;
15240;SDS011;7723;52.170;9.978;2023-04-15T04:40:39;19.00;;;10.65;;
15240;SDS011;7723;52.170;9.978;2023-04-15T04:43:06;20.08;;;11.85;;
15240;SDS011;7723;52.170;9.978;2023-04-15T04:45:34;21.63;;;11.85;;
15240;SDS011;7723;52.170;9.978;2023-04-15T04:48:01;24.08;;;12.18;;
15240;SDS011;7723;52.170;9.978;2023-04-15T04:50:31;21.98;;;11.25;;
15240;SDS011;7723;52.170;9.978;2023-04-15T04:52:59;18.95;;;11.23;;
15240;SDS011;7723;52.170;9.978;2023-04-15T04:55:26;22.20;;;11.90;;
15240;SDS011;7723;52.170;9.978;2023-04-15T04:57:53;24.17;;;12.13;;
15240;SDS011;7723;52.170;9.978;2023-04-15T05:00:20;20.73;;;11.98;;
15240;SDS011;7723;52.170;9.978;2023-04-15T05:02:48;20.95;;;11.82;;
15240;SDS011;7723;52.170;9.978;2023-04-15T05:05:15;24.73;;;13.30;;
15240;SDS011;7723;52.170;9.978;2023-04-15T05:07:42;25.15;;;12.25;;
15240;SDS011;7723;52.170;9.978;2023-04-15T05:10:11;24.42;;;13.02;;
15240;SDS011;7723;52.170;9.978;2023-04-15T05:12:39;23.17;;;12.75;;
15240;SDS011;7723;52.170;9.978;2023-04-15T05:15:07;23.95;;;12.52;;
15240;SDS011;7723;52.170;9.978;2023-04-15T05:17:34;25.90;;;13.40;;
15240;SDS011;7723;52.170;9.978;2023-04-15T05:20:02;27.15;;;14.02;;
15240;SDS011;7723;52.170;9.978;2023-04-15T05:22:29;28.85;;;14.10;;
15240;SDS011;7723;52.170;9.978;2023-04-15T05:24:56;29.17;;;14.52;;
15240;SDS011;7723;52.170;9.978;2023-04-15T05:27:25;26.52;;;13.43;;
15240;SDS011;7723;52.170;9.978;2023-04-15T05:29:52;25.55;;;13.73;;
15240;SDS011;7723;52.170;9.978;2023-04-15T05:32:20;25.80;;;14.10;;
15240;SDS011;7723;52.170;9.978;2023-04-15T05:34:47;26.58;;;13.70;;
15240;SDS011;7723;52.170;9.978;2023-04-15T05:37:15;29.45;;;14.68;;
15240;SDS011;7723;52.170;9.978;2023-04-15T05:39:42;27.13;;;12.63;;
15240;SDS011;7723;52.170;9.978;2023-04-15T05:42:09;29.33;;;14.32;;
15240;SDS011;7723;52.170;9.978;2023-04-15T05:44:37;27.83;;;14.77;;
15240;SDS011;7723;52.170;9.978;2023-04-15T05:47:04;29.23;;;14.13;;
15240;SDS011;7723;52.170;9.978;2023-04-15T05:49:32;29.80;;;13.90;;
15240;SDS011;7723;52.170;9.978;2023-04-15T05:52:00;25.88;;;14.07;;
15240;SDS011;7723;52.170;9.978;2023-04-15T05:54:27;29.85;;;13.60;;
15240;SDS011;7723;52.170;9.978;2023-04-15T05:56:54;24.98;;;13.90;;
15240;SDS011;7723;52.170;9.978;2023-04-15T05:59:21;29.42;;;13.52;;
15240;SDS011;7723;52.170;9.978;2023-04-15T06:01:50;25.98;;;13.18;;
15240;SDS011;7723;52.170;9.978;2023-04-15T06:04:17;21.77;;;13.05;;
15240;SDS011;7723;52.170;9.978;2023-04-15T06:06:44;26.58;;;14.13;;
15240;SDS011;7723;52.170;9.978;2023-04-15T06:09:12;25.83;;;13.13;;
15240;SDS011;7723;52.170;9.978;2023-04-15T06:11:39;27.35;;;13.13;;
15240;SDS011;7723;52.170;9.978;2023-04-15T06:14:06;25.25;;;12.73;;
15240;SDS011;7723;52.170;9.978;2023-04-15T06:16:33;25.17;;;12.77;;
15240;SDS011;7723;52.170;9.978;2023-04-15T06:19:03;22.52;;;12.10;;
15240;SDS011;7723;52.170;9.978;2023-04-15T06:21:30;25.13;;;13.30;;
15240;SDS011;7723;52.170;9.978;2023-04-15T06:23:57;19.98;;;11.43;;
15240;SDS011;7723;52.170;9.978;2023-04-15T06:26:26;22.52;;;12.18;;
15240;SDS011;7723;52.170;9.978;2023-04-15T06:28:58;23.70;;;12.18;;
15240;SDS011;7723;52.170;9.978;2023-04-15T06:31:25;26.48;;;12.70;;
15240;SDS011;7723;52.170;9.978;2023-04-15T06:33:53;26.23;;;12.13;;
15240;SDS011;7723;52.170;9.978;2023-04-15T06:36:22;20.58;;;11.15;;
15240;SDS011;7723;52.170;9.978;2023-04-15T06:38:49;19.27;;;10.95;;
15240;SDS011;7723;52.170;9.978;2023-04-15T06:41:16;22.00;;;11.50;;
15240;SDS011;7723;52.170;9.978;2023-04-15T06:43:43;18.52;;;10.43;;
15240;SDS011;7723;52.170;9.978;2023-04-15T06:46:10;19.58;;;11.00;;
15240;SDS011;7723;52.170;9.978;2023-04-15T06:48:37;18.55;;;10.48;;
15240;SDS011;7723;52.170;9.978;2023-04-15T06:51:04;17.98;;;10.75;;
15240;SDS011;7723;52.170;9.978;2023-04-15T06:53:33;19.90;;;10.68;;
15240;SDS011;7723;52.170;9.978;2023-04-15T06:56:05;24.52;;;10.93;;
15240;SDS011;7723;52.170;9.978;2023-04-15T06:58:33;19.98;;;10.93;;
15240;SDS011;7723;52.170;9.978;2023-04-15T07:01:00;21.00;;;12.82;;
15240;SDS011;7723;52.170;9.978;2023-04-15T07:03:27;17.55;;;10.25;;
15240;SDS011;7723;52.170;9.978;2023-04-15T07:05:54;17.83;;;9.82;;
15240;SDS011;7723;52.170;9.978;2023-04-15T07:08:22;16.48;;;9.48;;
15240;SDS011;7723;52.170;9.978;2023-04-15T07:10:51;17.88;;;10.48;;
15240;SDS011;7723;52.170;9.978;2023-04-15T07:13:18;15.35;;;9.05;;
15240;SDS011;7723;52.170;9.978;2023-04-15T07:15:45;13.57;;;8.60;;
15240;SDS011;7723;52.170;9.978;2023-04-15T07:18:12;15.77;;;8.77;;
15240;SDS011;7723;52.170;9.978;2023-04-15T07:20:39;16.30;;;8.35;;
15240;SDS011;7723;52.170;9.978;2023-04-15T07:23:06;16.88;;;9.77;;
15240;SDS011;7723;52.170;9.978;2023-04-15T07:25:33;18.35;;;9.70;;
15240;SDS011;7723;52.170;9.978;2023-04-15T07:28:02;14.35;;;8.85;;
15240;SDS011;7723;52.170;9.978;2023-04-15T07:30:29;13.77;;;8.48;;
15240;SDS011;7723;52.170;9.978;2023-04-15T07:32:57;14.98;;;8.52;;
15240;SDS011;7723;52.170;9.978;2023-04-15T07:35:24;15.45;;;8.90;;
15240;SDS011;7723;52.170;9.978;2023-04-15T07:37:51;12.07;;;7.68;;
15240;SDS011;7723;52.170;9.978;2023-04-15T07:40:18;15.68;;;9.05;;
15240;SDS011;7723;52.170;9.978;2023-04-15T07:42:46;14.95;;;8.23;;
15240;SDS011;7723;52.170;9.978;2023-04-15T07:45:15;13.80;;;7.88;;
15240;SDS011;7723;52.170;9.978;2023-04-15T07:47:42;12.80;;;7.70;;
15240;SDS011;7723;52.170;9.978;2023-04-15T07:50:09;13.07;;;8.60;;
15240;SDS011;7723;52.170;9.978;2023-04-15T07:52:36;12.50;;;7.68;;
15240;SDS011;7723;52.170;9.978;2023-04-15T07:55:04;13.35;;;7.85;;
15240;SDS011;7723;52.170;9.978;2023-04-15T07:57:33;12.55;;;7.82;;
15240;SDS011;7723;52.170;9.978;2023-04-15T08:00:00;13.00;;;7.43;;
15240;SDS011;7723;52.170;9.978;2023-04-15T08:02:31;12.35;;;7.22;;
15240;SDS011;7723;52.170;9.978;2023-04-15T08:04:58;11.98;;;7.45;;
15240;SDS011;7723;52.170;9.978;2023-04-15T08:07:27;12.02;;;7.22;;
15240;SDS011;7723;52.170;9.978;2023-04-15T08:09:54;10.30;;;6.72;;
15240;SDS011;7723;52.170;9.978;2023-04-15T08:12:21;11.23;;;7.30;;
15240;SDS011;7723;52.170;9.978;2023-04-15T08:14:49;10.73;;;6.05;;
15240;SDS011;7723;52.170;9.978;2023-04-15T08:17:16;13.57;;;6.13;;
15240;SDS011;7723;52.170;9.978;2023-04-15T08:19:45;11.68;;;6.57;;
15240;SDS011;7723;52.170;9.978;2023-04-15T08:22:13;10.18;;;6.70;;
15240;SDS011;7723;52.170;9.978;2023-04-15T08:24:41;9.57;;;5.47;;
15240;SDS011;7723;52.170;9.978;2023-04-15T08:27:08;7.88;;;5.25;;
15240;SDS011;7723;52.170;9.978;2023-04-15T08:29:35;8.65;;;5.32;;
15240;SDS011;7723;52.170;9.978;2023-04-15T08:32:02;6.88;;;4.43;;
15240;SDS011;7723;52.170;9.978;2023-04-15T08:34:30;6.40;;;4.32;;
15240;SDS011;7723;52.170;9.978;2023-04-15T08:36:58;6.85;;;4.57;;
15240;SDS011;7723;52.170;9.978;2023-04-15T08:39:25;6.40;;;4.20;;
15240;SDS011;7723;52.170;9.978;2023-04-15T08:41:55;8.07;;;4.30;;
15240;SDS011;7723;52.170;9.978;2023-04-15T08:44:26;6.97;;;3.95;;
15240;SDS011;7723;52.170;9.978;2023-04-15T08:46:55;6.43;;;3.70;;
15240;SDS011;7723;52.170;9.978;2023-04-15T08:49:26;5.40;;;3.33;;
15240;SDS011;7723;52.170;9.978;2023-04-15T08:51:54;6.05;;;3.60;;
15240;SDS011;7723;52.170;9.978;2023-04-15T08:54:25;4.90;;;2.97;;
15240;SDS011;7723;52.170;9.978;2023-04-15T08:56:52;5.57;;;4.00;;
15240;SDS011;7723;52.170;9.978;2023-04-15T08:59:20;4.68;;;3.08;;
15240;SDS011;7723;52.170;9.978;2023-04-15T09:01:47;5.32;;;3.30;;
15240;SDS011;7723;52.170;9.978;2023-04-15T09:04:16;7.47;;;3.00;;
15240;SDS011;7723;52.170;9.978;2023-04-15T09:06:43;6.18;;;3.60;;
15240;SDS011;7723;52.170;9.978;2023-04-15T09:09:11;4.57;;;2.85;;
15240;SDS011;7723;52.170;9.978;2023-04-15T09:11:40;5.20;;;3.08;;
15240;SDS011;7723;52.170;9.978;2023-04-15T09:14:07;5.03;;;3.30;;
15240;SDS011;7723;52.170;9.978;2023-04-15T09:19:23;4.63;;;2.80;;
15240;SDS011;7723;52.170;9.978;2023-04-15T09:21:51;5.50;;;3.05;;
15240;SDS011;7723;52.170;9.978;2023-04-15T09:24:20;5.50;;;3.65;;
15240;SDS011;7723;52.170;9.978;2023-04-15T09:26:52;5.53;;;3.28;;
15240;SDS011;7723;52.170;9.978;2023-04-15T09:29:20;5.57;;;3.58;;
15240;SDS011;7723;52.170;9.978;2023-04-15T09:31:50;5.13;;;3.20;;
15240;SDS011;7723;52.170;9.978;2023-04-15T09:34:18;4.97;;;3.40;;
15240;SDS011;7723;52.170;9.978;2023-04-15T09:36:52;5.55;;;3.75;;
15240;SDS011;7723;52.170;9.978;2023-04-15T09:39:21;7.25;;;3.92;;
15240;SDS011;7723;52.170;9.978;2023-04-15T09:42:06;5.65;;;3.53;;
15240;SDS011;7723;52.170;9.978;2023-04-15T09:44:33;6.18;;;3.70;;
15240;SDS011;7723;52.170;9.978;2023-04-15T09:47:00;5.55;;;3.70;;
15240;SDS011;7723;52.170;9.978;2023-04-15T09:49:28;5.38;;;3.17;;
15240;SDS011;7723;52.170;9.978;2023-04-15T09:51:59;6.93;;;4.30;;
15240;SDS011;7723;52.170;9.978;2023-04-15T09:54:31;6.78;;;4.13;;
15240;SDS011;7723;52.170;9.978;2023-04-15T09:57:06;7.03;;;4.97;;
15240;SDS011;7723;52.170;9.978;2023-04-15T09:59:34;7.95;;;5.88;;
15240;SDS011;7723;52.170;9.978;2023-04-15T10:02:02;8.73;;;5.05;;
15240;SDS011;7723;52.170;9.978;2023-04-15T10:04:31;9.75;;;6.45;;
15240;SDS011;7723;52.170;9.978;2023-04-15T10:07:02;10.35;;;5.72;;
15240;SDS011;7723;52.170;9.978;2023-04-15T10:09:30;11.20;;;6.43;;
15240;SDS011;7723;52.170;9.978;2023-04-15T10:11:58;9.57;;;5.57;;
15240;SDS011;7723;52.170;9.978;2023-04-15T10:14:28;10.63;;;6.25;;
15240;SDS011;7723;52.170;9.978;2023-04-15T10:17:01;13.85;;;6.25;;
15240;SDS011;7723;52.170;9.978;2023-04-15T10:19:30;11.98;;;7.43;;
15240;SDS011;7723;52.170;9.978;2023-04-15T10:21:58;12.77;;;7.80;;
15240;SDS011;7723;52.170;9.978;2023-04-15T10:24:26;13.90;;;7.45;;
15240;SDS011;7723;52.170;9.978;2023-04-15T10:26:56;13.20;;;7.90;;
15240;SDS011;7723;52.170;9.978;2023-04-15T10:29:25;15.68;;;8.13;;
15240;SDS011;7723;52.170;9.978;2023-04-15T10:31:54;13.40;;;8.02;;
15240;SDS011;7723;52.170;9.978;2023-04-15T10:34:23;16.15;;;8.90;;
15240;SDS011;7723;52.170;9.978;2023-04-15T10:36:53;15.63;;;8.90;;
15240;SDS011;7723;52.170;9.978;2023-04-15T10:39:40;16.98;;;8.95;;
15240;SDS011;7723;52.170;9.978;2023-04-15T10:42:09;16.13;;;9.57;;
15240;SDS011;7723;52.170;9.978;2023-04-15T10:44:37;16.48;;;9.68;;
15240;SDS011;7723;52.170;9.978;2023-04-15T10:47:08;20.33;;;10.43;;
15240;SDS011;7723;52.170;9.978;2023-04-15T10:49:44;15.40;;;9.43;;
15240;SDS011;7723;52.170;9.978;2023-04-15T10:52:13;19.33;;;10.63;;
15240;SDS011;7723;52.170;9.978;2023-04-15T10:54:41;21.75;;;10.93;;
15240;SDS011;7723;52.170;9.978;2023-04-15T10:57:13;19.88;;;10.50;;
15240;SDS011;7723;52.170;9.978;2023-04-15T10:59:59;20.10;;;10.10;;
15240;SDS011;7723;52.170;9.978;2023-04-15T11:02:39;19.92;;;11.07;;
15240;SDS011;7723;52.170;9.978;2023-04-15T11:05:08;18.25;;;10.70;;
15240;SDS011;7723;52.170;9.978;2023-04-15T11:07:36;21.85;;;11.50;;
15240;SDS011;7723;52.170;9.978;2023-04-15T11:13:19;18.05;;;10.95;;
15240;SDS011;7723;52.170;9.978;2023-04-15T11:15:49;24.92;;;12.57;;
15240;SDS011;7723;52.170;9.978;2023-04-15T11:18:18;23.63;;;13.15;;
15240;SDS011;7723;52.170;9.978;2023-04-15T11:20:47;30.02;;;14.75;;
15240;SDS011;7723;52.170;9.978;2023-04-15T11:23:16;22.63;;;12.63;;
15240;SDS011;7723;52.170;9.978;2023-04-15T11:25:44;28.70;;;12.90;;
15240;SDS011;7723;52.170;9.978;2023-04-15T11:28:11;27.02;;;12.93;;
15240;SDS011;7723;52.170;9.978;2023-04-15T11:30:39;22.58;;;12.23;;
15240;SDS011;7723;52.170;9.978;2023-04-15T11:33:08;23.85;;;13.77;;
15240;SDS011;7723;52.170;9.978;2023-04-15T11:35:37;27.40;;;13.52;;
15240;SDS011;7723;52.170;9.978;2023-04-15T11:38:08;24.00;;;11.65;;
15240;SDS011;7723;52.170;9.978;2023-04-15T11:40:36;27.77;;;14.70;;
15240;SDS011;7723;52.170;9.978;2023-04-15T11:43:04;30.00;;;14.38;;
15240;SDS011;7723;52.170;9.978;2023-04-15T11:45:32;32.85;;;14.98;;
15240;SDS011;7723;52.170;9.978;2023-04-15T11:48:04;28.63;;;14.30;;
15240;SDS011;7723;52.170;9.978;2023-04-15T11:50:32;34.05;;;16.65;;
15240;SDS011;7723;52.170;9.978;2023-04-15T11:53:02;31.98;;;16.42;;
15240;SDS011;7723;52.170;9.978;2023-04-15T11:55:31;36.80;;;17.77;;
15240;SDS011;7723;52.170;9.978;2023-04-15T11:58:08;35.92;;;17.83;;
15240;SDS011;7723;52.170;9.978;2023-04-15T12:00:37;32.25;;;16.38;;
15240;SDS011;7723;52.170;9.978;2023-04-15T12:03:11;35.33;;;16.83;;
15240;SDS011;7723;52.170;9.978;2023-04-15T12:11:15;37.70;;;15.88;;
15240;SDS011;7723;52.170;9.978;2023-04-15T12:13:42;31.55;;;16.23;;
15240;SDS011;7723;52.170;9.978;2023-04-15T12:16:10;32.70;;;15.27;;
15240;SDS011;7723;52.170;9.978;2023-04-15T12:18:37;33.42;;;16.17;;
15240;SDS011;7723;52.170;9.978;2023-04-15T12:21:08;33.15;;;16.42;;
15240;SDS011;7723;52.170;9.978;2023-04-15T12:23:36;39.33;;;17.27;;
15240;SDS011;7723;52.170;9.978;2023-04-15T12:26:05;36.60;;;17.23;;
15240;SDS011;7723;52.170;9.978;2023-04-15T12:28:33;34.30;;;16.38;;
15240;SDS011;7723;52.170;9.978;2023-04-15T12:31:05;44.53;;;19.33;;
15240;SDS011;7723;52.170;9.978;2023-04-15T12:33:33;37.40;;;17.42;;
15240;SDS011;7723;52.170;9.978;2023-04-15T12:36:00;34.63;;;17.48;;
15240;SDS011;7723;52.170;9.978;2023-04-15T12:38:28;45.08;;;20.15;;
15240;SDS011;7723;52.170;9.978;2023-04-15T12:40:56;38.33;;;18.15;;
15240;SDS011;7723;52.170;9.978;2023-04-15T12:43:25;39.75;;;19.52;;
15240;SDS011;7723;52.170;9.978;2023-04-15T12:45:52;44.10;;;18.30;;
15240;SDS011;7723;52.170;9.978;2023-04-15T12:48:19;43.78;;;20.05;;
15240;SDS011;7723;52.170;9.978;2023-04-15T12:50:46;41.03;;;19.45;;
15240;SDS011;7723;52.170;9.978;2023-04-15T12:53:14;44.15;;;20.85;;
15240;SDS011;7723;52.170;9.978;2023-04-15T12:55:41;42.97;;;20.95;;
15240;SDS011;7723;52.170;9.978;2023-04-15T12:58:08;41.65;;;19.90;;
15240;SDS011;7723;52.170;9.978;2023-04-15T13:00:37;43.92;;;20.90;;
15240;SDS011;7723;52.170;9.978;2023-04-15T13:03:04;42.78;;;19.17;;
15240;SDS011;7723;52.170;9.978;2023-04-15T13:05:31;40.53;;;20.13;;
15240;SDS011;7723;52.170;9.978;2023-04-15T13:07:58;39.22;;;19.95;;
15240;SDS011;7723;52.170;9.978;2023-04-15T13:10:25;39.67;;;19.58;;
15240;SDS011;7723;52.170;9.978;2023-04-15T13:12:53;39.17;;;20.00;;
15240;SDS011;7723;52.170;9.978;2023-04-15T13:15:21;45.55;;;21.45;;
15240;SDS011;7723;52.170;9.978;2023-04-15T13:17:52;43.78;;;21.38;;
15240;SDS011;7723;52.170;9.978;2023-04-15T13:20:19;41.03;;;19.52;;
15240;SDS011;7723;52.170;9.978;2023-04-15T13:22:46;41.20;;;19.52;;
15240;SDS011;7723;52.170;9.978;2023-04-15T13:25:13;40.08;;;19.70;;
15240;SDS011;7723;52.170;9.978;2023-04-15T13:27:40;42.85;;;21.08;;
15240;SDS011;7723;52.170;9.978;2023-04-15T13:30:08;41.88;;;20.58;;
15240;SDS011;7723;52.170;9.978;2023-04-15T13:32:35;41.78;;;18.48;;
15240;SDS011;7723;52.170;9.978;2023-04-15T13:35:04;39.67;;;19.35;;
15240;SDS011;7723;52.170;9.978;2023-04-15T13:37:31;37.05;;;18.98;;
15240;SDS011;7723;52.170;9.978;2023-04-15T13:39:58;34.28;;;19.27;;
15240;SDS011;7723;52.170;9.978;2023-04-15T13:42:25;42.83;;;19.75;;
15240;SDS011;7723;52.170;9.978;2023-04-15T13:44:52;39.75;;;19.08;;
15240;SDS011;7723;52.170;9.978;2023-04-15T13:47:19;34.70;;;17.90;;
15240;SDS011;7723;52.170;9.978;2023-04-15T13:49:47;34.20;;;17.58;;
15240;SDS011;7723;52.170;9.978;2023-04-15T13:52:15;31.42;;;18.02;;
15240;SDS011;7723;52.170;9.978;2023-04-15T13:54:42;33.30;;;17.85;;
15240;SDS011;7723;52.170;9.978;2023-04-15T13:57:09;30.33;;;17.60;;
15240;SDS011;7723;52.170;9.978;2023-04-15T13:59:36;33.97;;;16.27;;
15240;SDS011;7723;52.170;9.978;2023-04-15T14:02:03;30.95;;;16.65;;
15240;SDS011;7723;52.170;9.978;2023-04-15T14:04:30;33.13;;;16.65;;
15240;SDS011;7723;52.170;9.978;2023-04-15T14:06:57;29.17;;;15.90;;
15240;SDS011;7723;52.170;9.978;2023-04-15T14:09:26;24.75;;;15.95;;
15240;SDS011;7723;52.170;9.978;2023-04-15T14:11:53;31.90;;;16.88;;
15240;SDS011;7723;52.170;9.978;2023-04-15T14:14:20;25.58;;;15.82;;
15240;SDS011;7723;52.170;9.978;2023-04-15T14:16:47;33.03;;;16.67;;
15240;SDS011;7723;52.170;9.978;2023-04-15T14:19:14;29.95;;;15.60;;
15240;SDS011;7723;52.170;9.978;2023-04-15T14:21:41;26.45;;;14.52;;
15240;SDS011;7723;52.170;9.978;2023-04-15T14:24:09;26.20;;;14.93;;
15240;SDS011;7723;52.170;9.978;2023-04-15T14:26:38;25.52;;;13.48;;
15240;SDS011;7723;52.170;9.978;2023-04-15T14:29:05;21.25;;;13.05;;
15240;SDS011;7723;52.170;9.978;2023-04-15T14:31:32;24.08;;;14.10;;
15240;SDS011;7723;52.170;9.978;2023-04-15T14:33:59;22.38;;;13.80;;
15240;SDS011;7723;52.170;9.978;2023-04-15T14:36:26;23.63;;;14.75;;
15240;SDS011;7723;52.170;9.978;2023-04-15T14:38:53;22.80;;;14.15;;
15240;SDS011;7723;52.170;9.978;2023-04-15T14:41:20;22.40;;;14.13;;
15240;SDS011;7723;52.170;9.978;2023-04-15T14:43:49;21.25;;;13.10;;
15240;SDS011;7723;52.170;9.978;2023-04-15T14:46:16;23.23;;;14.30;;
15240;SDS011;7723;52.170;9.978;2023-04-15T14:48:43;22.95;;;13.85;;
15240;SDS011;7723;52.170;9.978;2023-04-15T14:51:10;24.83;;;14.93;;
15240;SDS011;7723;52.170;9.978;2023-04-15T14:53:37;22.40;;;13.80;;
15240;SDS011;7723;52.170;9.978;2023-04-15T14:56:04;24.98;;;15.02;;
15240;SDS011;7723;52.170;9.978;2023-04-15T14:58:32;26.15;;;17.85;;
15240;SDS011;7723;52.170;9.978;2023-04-15T15:01:00;22.85;;;15.38;;